^^
Datos históricos de la estación: Murcia-Puente Tocinos
Diario Informe para Noviembre 22, 2019 Unidades:  Ambas    Ingés   Métrico
Diario Semanal Mensual Anual
  Máxima: Mínima: Promedio:
Temperatura: 60.3 °F /  15.7 °C 48.6 °F /  9.2 °C 53.8 °F /  12.1 °C
Punto de rocio: 55.8 °F /  13.2 °C 46.9 °F /  8.3 °C 51.3 °F /  10.7 °C
Humedad: 96% 79% 91%
Velocidad viento: 12.5mph /  20.1km/h - 3.4mph /  5.4km/h
Racha viento: 26.5mph /  42.6km/h - -
Viento- - Sur
Presión: 29.8 in /  1007.4 hPa 29.4 in /  995.0 hPa -
Precipitación: 0.29 in /  7.3 mm    
 
 
Tabla de datos para Noviembre 22, 2019
Hora Temperatura Punto de rocio Presión Viento Velocidad viento Racha viento Humedad Intensidad lluvia(por hora) Nubes
00:04 53.4 °F /  11.9 °C 50.4 °F /  10.2 °C 29.7in /  1007.3hPa NO 1.9mph /  3km/h 3mph /  4.8km/h 89% 0in /  0.0mm
00:09 53.4 °F /  11.9 °C 50.4 °F /  10.2 °C 29.8in /  1007.4hPa NO 1.8mph /  2.9km/h 1mph /  1.6km/h 89.4% 0in /  0.0mm
00:14 53.4 °F /  11.9 °C 50.5 °F /  10.3 °C 29.8in /  1007.4hPa NO 0.5mph /  0.8km/h 5mph /  8km/h 90% 0in /  0.0mm
00:19 53.2 °F /  11.8 °C 50.4 °F /  10.2 °C 29.8in /  1007.4hPa Calm   4.7mph /  7.6km/h 90% 0in /  0.0mm
00:24 53.2 °F /  11.8 °C 50.4 °F /  10.2 °C 29.8in /  1007.4hPa Oeste 1.7mph /  2.7km/h 5mph /  8km/h 90% 0in /  0.0mm
00:29 53.2 °F /  11.8 °C 50.4 °F /  10.2 °C 29.8in /  1007.4hPa Oeste 2.4mph /  3.9km/h 5mph /  8km/h 90.4% 0in /  0.0mm
00:34 53.1 °F /  11.7 °C 50.5 °F /  10.3 °C 29.8in /  1007.4hPa Oeste 2mph /  3.2km/h 5mph /  8km/h 91% 0in /  0.0mm
00:39 53.1 °F /  11.7 °C 50.5 °F /  10.3 °C 29.8in /  1007.4hPa OSO 1.8mph /  2.9km/h 4.3mph /  6.9km/h 91% 0in /  0.0mm
00:44 53.1 °F /  11.7 °C 50.5 °F /  10.3 °C 29.8in /  1007.4hPa SO 1.8mph /  2.9km/h 5mph /  8km/h 91% 0in /  0.0mm
00:49 53.2 °F /  11.8 °C 50.7 °F /  10.4 °C 29.8in /  1007.4hPa SSO 1.8mph /  2.9km/h 5mph /  8km/h 91% 0in /  0.0mm
00:54 53.2 °F /  11.8 °C 50.7 °F /  10.4 °C 29.8in /  1007.4hPa SE 1.6mph /  2.5km/h 3.6mph /  5.8km/h 91% 0in /  0.0mm
00:59 53.2 °F /  11.8 °C 50.7 °F /  10.4 °C 29.7in /  1007.1hPa SE 1.4mph /  2.2km/h 4.6mph /  7.4km/h 91% 0in /  0.0mm
01:04 53.2 °F /  11.8 °C 50.5 °F /  10.3 °C 29.7in /  1007.1hPa SE 2.1mph /  3.4km/h 5.8mph /  9.3km/h 90.4% 0in /  0.0mm
01:09 53.1 °F /  11.7 °C 50.2 °F /  10.1 °C 29.7in /  1007.1hPa SE 2.4mph /  3.9km/h 6mph /  9.7km/h 90.3% 0in /  0.0mm
01:14 52.9 °F /  11.6 °C 50.4 °F /  10.2 °C 29.7in /  1007.0hPa Sur 2.9mph /  4.6km/h 5mph /  8km/h 91% 0in /  0.0mm
01:19 52.9 °F /  11.6 °C 50.2 °F /  10.1 °C 29.7in /  1007.0hPa SSO 3.1mph /  5km/h 5mph /  8km/h 91% 0in /  0.0mm
01:24 52.7 °F /  11.5 °C 50.2 °F /  10.1 °C 29.7in /  1007.0hPa SO 3mph /  4.8km/h 5mph /  8km/h 91% 0in /  0.0mm
01:29 52.7 °F /  11.5 °C 50.2 °F /  10.1 °C 29.7in /  1007.0hPa SSO 2.9mph /  4.7km/h 5mph /  8km/h 91% 0in /  0.0mm
01:34 52.7 °F /  11.5 °C 50.4 °F /  10.2 °C 29.7in /  1007.0hPa Sur 2.9mph /  4.7km/h 5mph /  8km/h 91.6% 0in /  0.0mm
01:39 52.9 °F /  11.6 °C 50.5 °F /  10.3 °C 29.7in /  1007.0hPa Sur 2.9mph /  4.7km/h 5.8mph /  9.3km/h 92% 0in /  0.0mm
01:44 52.9 °F /  11.6 °C 50.4 °F /  10.2 °C 29.7in /  1006.8hPa SSO 3mph /  4.9km/h 6mph /  9.7km/h 91.3% 0in /  0.0mm
01:49 52.9 °F /  11.6 °C 50.4 °F /  10.2 °C 29.7in /  1006.8hPa Sur 3.1mph /  5km/h 5mph /  8km/h 91% 0in /  0.0mm
01:54 52.9 °F /  11.6 °C 50.2 °F /  10.1 °C 29.7in /  1006.8hPa SSO 2.6mph /  4.2km/h 5.2mph /  8.4km/h 91% 0in /  0.0mm
01:59 52.9 °F /  11.6 °C 50.4 °F /  10.2 °C 29.7in /  1006.8hPa SSO 2.4mph /  3.9km/h 5.9mph /  9.5km/h 91% 0in /  0.0mm
02:04 52.9 °F /  11.6 °C 50.4 °F /  10.2 °C 29.7in /  1006.8hPa SSO 2.9mph /  4.7km/h 6mph /  9.7km/h 91% 0in /  0.0mm
02:09 52.9 °F /  11.6 °C 50.4 °F /  10.2 °C 29.7in /  1006.8hPa SSO 3.1mph /  5km/h 6mph /  9.7km/h 91% 0in /  0.0mm
02:14 52.9 °F /  11.6 °C 50.4 °F /  10.2 °C 29.7in /  1006.5hPa SSO 1.9mph /  3.1km/h 1.4mph /  2.3km/h 91% 0in /  0.0mm
02:19 52.9 °F /  11.6 °C 50.4 °F /  10.2 °C 29.7in /  1006.5hPa Sur 1.4mph /  2.2km/h 4.6mph /  7.4km/h 91% 0in /  0.0mm
02:24 52.9 °F /  11.6 °C 50.2 °F /  10.1 °C 29.7in /  1006.5hPa Sur 1.8mph /  2.9km/h 5.9mph /  9.5km/h 91% 0in /  0.0mm
02:29 52.7 °F /  11.5 °C 50.2 °F /  10.1 °C 29.7in /  1006.5hPa SSO 2mph /  3.2km/h 6mph /  9.7km/h 91% 0in /  0.0mm
02:34 52.7 °F /  11.5 °C 50.2 °F /  10.1 °C 29.7in /  1006.5hPa SSO 2.7mph /  4.3km/h 5mph /  8km/h 91% 0in /  0.0mm
02:39 52.7 °F /  11.5 °C 50 °F /  10 °C 29.7in /  1006.5hPa Sur 2.9mph /  4.7km/h 5.2mph /  8.4km/h 91% 0in /  0.0mm
02:44 52.7 °F /  11.5 °C 50 °F /  10 °C 29.7in /  1006.4hPa Sur 3mph /  4.9km/h 5.2mph /  8.4km/h 91% 0in /  0.0mm
02:49 52.5 °F /  11.4 °C 50 °F /  10 °C 29.7in /  1006.4hPa Sur 3.1mph /  5km/h 5mph /  8km/h 90.7% 0in /  0.0mm
02:54 52.5 °F /  11.4 °C 49.8 °F /  9.9 °C 29.7in /  1006.4hPa Sur 3mph /  4.8km/h 5mph /  8km/h 90% 0in /  0.0mm
02:59 52.5 °F /  11.4 °C 49.8 °F /  9.9 °C 29.7in /  1006.2hPa SO 2.9mph /  4.7km/h 4mph /  6.4km/h 90% 0in /  0.0mm
03:04 52.5 °F /  11.4 °C 49.6 °F /  9.8 °C 29.7in /  1006.2hPa Oeste 2.1mph /  3.3km/h 4.6mph /  7.4km/h 90% 0in /  0.0mm
03:09 52.5 °F /  11.4 °C 49.6 °F /  9.8 °C 29.7in /  1006.3hPa OSO 1.8mph /  2.9km/h 6.2mph /  10km/h 90% 0in /  0.0mm
03:14 52.3 °F /  11.3 °C 49.5 °F /  9.7 °C 29.7in /  1006.3hPa OSO 2.7mph /  4.3km/h 6mph /  9.7km/h 90% 0in /  0.0mm
03:19 52.3 °F /  11.3 °C 49.5 °F /  9.7 °C 29.7in /  1006.3hPa OSO 3.1mph /  5km/h 6mph /  9.7km/h 90% 0.01in /  0.2mm
03:24 52.2 °F /  11.2 °C 49.5 °F /  9.7 °C 29.7in /  1006.3hPa OSO 3mph /  4.8km/h 5.2mph /  8.4km/h 90.6% 0.01in /  0.2mm
03:29 52.2 °F /  11.2 °C 49.6 °F /  9.8 °C 29.7in /  1006.2hPa Oeste 2.9mph /  4.7km/h 5mph /  8km/h 91% 0.01in /  0.2mm
03:34 52.2 °F /  11.2 °C 49.6 °F /  9.8 °C 29.7in /  1006.2hPa Oeste 2.2mph /  3.6km/h 4mph /  6.4km/h 91% 0.01in /  0.2mm
03:39 52 °F /  11.1 °C 49.3 °F /  9.6 °C 29.7in /  1006.2hPa Sur 2mph /  3.2km/h 1.2mph /  1.9km/h 90.6% 0.01in /  0.2mm
03:44 52 °F /  11.1 °C 49.3 °F /  9.6 °C 29.7in /  1006.2hPa Sur 0.6mph /  1km/h 5.4mph /  8.7km/h 90.8% 0.01in /  0.2mm
03:49 51.8 °F /  11 °C 49.3 °F /  9.6 °C 29.7in /  1006.2hPa Calm   6mph /  9.7km/h 91% 0.01in /  0.2mm
03:54 51.8 °F /  11 °C 49.3 °F /  9.6 °C 29.7in /  1006.2hPa SSO 2.8mph /  4.5km/h 6.9mph /  11.1km/h 91% 0.01in /  0.2mm
03:59 51.6 °F /  10.9 °C 49.1 °F /  9.5 °C 29.7in /  1006.1hPa SSO 4mph /  6.5km/h 7mph /  11.3km/h 91% 0.01in /  0.2mm
04:04 51.4 °F /  10.8 °C 48.9 °F /  9.4 °C 29.7in /  1006.1hPa Sur 3.7mph /  6km/h 6mph /  9.7km/h 91% 0.01in /  0.2mm
04:09 51.4 °F /  10.8 °C 49.1 °F /  9.5 °C 29.7in /  1006.1hPa SSE 3.6mph /  5.8km/h 6.9mph /  11.1km/h 91.8% 0.01in /  0.2mm
04:14 51.3 °F /  10.7 °C 49.1 °F /  9.5 °C 29.7in /  1005.9hPa SSE 3.1mph /  5km/h 8.7mph /  14km/h 92% 0.01in /  0.2mm
04:19 51.3 °F /  10.7 °C 48.9 °F /  9.4 °C 29.7in /  1005.9hPa Sur 2.9mph /  4.7km/h 9.2mph /  14.8km/h 92% 0.01in /  0.2mm
04:24 51.1 °F /  10.6 °C 48.7 °F /  9.3 °C 29.7in /  1005.9hPa Sur 4.5mph /  7.3km/h 9mph /  14.5km/h 92% 0in /  0.0mm
04:29 51.1 °F /  10.6 °C 48.9 °F /  9.4 °C 29.7in /  1005.9hPa Sur 5.2mph /  8.4km/h 7mph /  11.3km/h 92.5% 0in /  0.0mm
04:34 51.1 °F /  10.6 °C 49.1 °F /  9.5 °C 29.7in /  1005.9hPa Sur 4.3mph /  7km/h 7mph /  11.3km/h 93% 0in /  0.0mm
04:39 51.1 °F /  10.6 °C 49.1 °F /  9.5 °C 29.7in /  1005.9hPa SSO 4mph /  6.5km/h 5.2mph /  8.4km/h 93% 0in /  0.0mm
04:44 51.3 °F /  10.7 °C 49.3 °F /  9.6 °C 29.7in /  1005.8hPa SSO 3.4mph /  5.4km/h 6.2mph /  10km/h 93% 0in /  0.0mm
04:49 51.3 °F /  10.7 °C 49.3 °F /  9.6 °C 29.7in /  1005.8hPa Sur 3.1mph /  5km/h 6.9mph /  11.1km/h 93% 0in /  0.0mm
04:54 51.3 °F /  10.7 °C 49.3 °F /  9.6 °C 29.7in /  1005.8hPa Sur 3.9mph /  6.3km/h 7mph /  11.3km/h 93% 0in /  0.0mm
04:59 51.3 °F /  10.7 °C 49.3 °F /  9.6 °C 29.7in /  1005.8hPa SSE 4.3mph /  6.9km/h 6.2mph /  10km/h 93% 0in /  0.0mm
05:04 51.3 °F /  10.7 °C 49.1 °F /  9.5 °C 29.7in /  1005.8hPa Sur 3.4mph /  5.5km/h 6mph /  9.7km/h 92.5% 0in /  0.0mm
05:09 51.3 °F /  10.7 °C 49.1 °F /  9.5 °C 29.7in /  1005.8hPa OSO 3.1mph /  5km/h 5mph /  8km/h 92.1% 0in /  0.0mm
05:14 51.3 °F /  10.7 °C 48.9 °F /  9.4 °C 29.7in /  1005.7hPa SO 2.4mph /  3.8km/h 5mph /  8km/h 92% 0in /  0.0mm
05:19 51.3 °F /  10.7 °C 48.9 °F /  9.4 °C 29.7in /  1005.7hPa SSE 2mph /  3.2km/h 4.6mph /  7.4km/h 92% 0in /  0.0mm
05:24 51.3 °F /  10.7 °C 48.9 °F /  9.4 °C 29.7in /  1005.8hPa SSO 1.9mph /  3km/h 5mph /  8km/h 92% 0in /  0.0mm
05:29 51.3 °F /  10.7 °C 48.9 °F /  9.4 °C 29.7in /  1005.8hPa OSO 1.8mph /  2.9km/h 5mph /  8km/h 92% 0in /  0.0mm
05:34 51.3 °F /  10.7 °C 48.9 °F /  9.4 °C 29.7in /  1005.8hPa OSO 1.9mph /  3.1km/h 4mph /  6.4km/h 92% 0in /  0.0mm
05:39 51.3 °F /  10.7 °C 48.9 °F /  9.4 °C 29.7in /  1005.8hPa OSO 2mph /  3.2km/h 2mph /  3.2km/h 92% 0in /  0.0mm
05:44 51.1 °F /  10.6 °C 48.7 °F /  9.3 °C 29.7in /  1005.7hPa OSO 0.6mph /  1km/h 3.5mph /  5.6km/h 92% 0in /  0.0mm
05:49 51.1 °F /  10.6 °C 48.7 °F /  9.3 °C 29.7in /  1005.7hPa Calm   3.6mph /  5.8km/h 92% 0in /  0.0mm
05:54 51.1 °F /  10.6 °C 48.7 °F /  9.3 °C 29.7in /  1005.8hPa OSO 1.7mph /  2.8km/h 4.6mph /  7.4km/h 92% 0in /  0.0mm
05:59 51.1 °F /  10.6 °C 48.7 °F /  9.3 °C 29.7in /  1005.8hPa OSO 2.4mph /  3.9km/h 5mph /  8km/h 92% 0in /  0.0mm
06:04 50.9 °F /  10.5 °C 48.7 °F /  9.3 °C 29.7in /  1005.8hPa OSO 0.6mph /  1km/h   92% 0in /  0.0mm
06:09 50.7 °F /  10.4 °C 48.6 °F /  9.2 °C 29.7in /  1005.8hPa Calm     92% 0in /  0.0mm
06:14 50.7 °F /  10.4 °C 48.4 °F /  9.1 °C 29.7in /  1005.4hPa Calm     92% 0in /  0.0mm
06:19 50.5 °F /  10.3 °C 48.4 °F /  9.1 °C 29.7in /  1005.4hPa Calm     92% 0in /  0.0mm
06:24 50.4 °F /  10.2 °C 48.2 °F /  9 °C 29.7in /  1005.4hPa Calm     92% 0in /  0.0mm
06:29 50.4 °F /  10.2 °C 48 °F /  8.9 °C 29.7in /  1005.3hPa Calm     92% 0in /  0.0mm
06:34 50.4 °F /  10.2 °C 48 °F /  8.9 °C 29.7in /  1005.3hPa Calm     92% 0in /  0.0mm
06:39 50.2 °F /  10.1 °C 47.8 °F /  8.8 °C 29.7in /  1005.3hPa Calm   6.2mph /  10km/h 92% 0in /  0.0mm
06:44 49.6 °F /  9.8 °C 47.3 °F /  8.5 °C 29.7in /  1005.2hPa SSE 1.4mph /  2.3km/h 7.4mph /  11.9km/h 91.6% 0in /  0.0mm
06:49 49.5 °F /  9.7 °C 47.1 °F /  8.4 °C 29.7in /  1005.2hPa SSE 2mph /  3.2km/h 7mph /  11.3km/h 92% 0in /  0.0mm
06:54 49.3 °F /  9.6 °C 47.1 °F /  8.4 °C 29.7in /  1005.2hPa SSE 3.4mph /  5.5km/h 6mph /  9.7km/h 92.6% 0in /  0.0mm
06:59 49.1 °F /  9.5 °C 47.1 °F /  8.4 °C 29.7in /  1005.2hPa SSO 4mph /  6.5km/h 6mph /  9.7km/h 93% 0in /  0.0mm
07:04 48.9 °F /  9.4 °C 47.1 °F /  8.4 °C 29.7in /  1005.2hPa SO 3.4mph /  5.4km/h 5mph /  8km/h 93% 0in /  0.0mm
07:09 49.1 °F /  9.5 °C 47.5 °F /  8.6 °C 29.7in /  1005.3hPa SSO 3.1mph /  5km/h 5mph /  8km/h 93.8% 0in /  0.0mm
07:14 49.3 °F /  9.6 °C 47.7 °F /  8.7 °C 29.7in /  1005.3hPa SE 2.6mph /  4.2km/h 5mph /  8km/h 94% 0in /  0.0mm
07:19 49.3 °F /  9.6 °C 47.7 °F /  8.7 °C 29.7in /  1005.3hPa SE 2.4mph /  3.9km/h 5mph /  8km/h 94% 0in /  0.0mm
07:24 49.3 °F /  9.6 °C 47.7 °F /  8.7 °C 29.7in /  1005.4hPa Sur 2mph /  3.2km/h 4.7mph /  7.6km/h 94% 0in /  0.0mm
07:29 49.3 °F /  9.6 °C 47.7 °F /  8.7 °C 29.7in /  1005.4hPa SE 1.8mph /  2.9km/h 5mph /  8km/h 94% 0in /  0.0mm
07:34 49.3 °F /  9.6 °C 47.5 °F /  8.6 °C 29.7in /  1005.4hPa SSE 2.7mph /  4.3km/h 6.2mph /  10km/h 93.5% 0in /  0.0mm
07:39 48.9 °F /  9.4 °C 47.1 °F /  8.4 °C 29.7in /  1005.4hPa SSE 3.1mph /  5km/h 6.9mph /  11.1km/h 93.1% 0in /  0.0mm
07:44 48.7 °F /  9.3 °C 47.1 °F /  8.4 °C 29.7in /  1005.3hPa SSE 4.5mph /  7.3km/h 8.5mph /  13.7km/h 93.7% 0in /  0.0mm
07:49 48.7 °F /  9.3 °C 47.1 °F /  8.4 °C 29.7in /  1005.3hPa Sur 5.2mph /  8.4km/h 9mph /  14.5km/h 94% 0in /  0.0mm
07:54 48.6 °F /  9.2 °C 46.9 °F /  8.3 °C 29.7in /  1005.4hPa SSO 4.6mph /  7.4km/h 7mph /  11.3km/h 94% 0in /  0.0mm
07:59 48.7 °F /  9.3 °C 47.1 °F /  8.4 °C 29.7in /  1005.4hPa Sur 4.3mph /  6.9km/h 6mph /  9.7km/h 94% 0in /  0.0mm
08:04 48.7 °F /  9.3 °C 47.1 °F /  8.4 °C 29.7in /  1005.4hPa SSO 3.8mph /  6.1km/h 6.9mph /  11.1km/h 94% 0in /  0.0mm
08:09 48.9 °F /  9.4 °C 47.3 °F /  8.5 °C 29.7in /  1005.6hPa Sur 3.6mph /  5.8km/h 7mph /  11.3km/h 94% 0in /  0.0mm
08:14 48.9 °F /  9.4 °C 47.3 °F /  8.5 °C 29.7in /  1005.6hPa SSE 3.9mph /  6.2km/h 6mph /  9.7km/h 94% 0in /  0.0mm
08:19 48.9 °F /  9.4 °C 47.3 °F /  8.5 °C 29.7in /  1005.6hPa SE 4mph /  6.5km/h 6.9mph /  11.1km/h 94% 0in /  0.0mm
08:24 48.9 °F /  9.4 °C 47.3 °F /  8.5 °C 29.7in /  1005.6hPa SE 4mph /  6.5km/h 7mph /  11.3km/h 94% 0in /  0.0mm
08:29 49.1 °F /  9.5 °C 47.5 °F /  8.6 °C 29.7in /  1005.2hPa Sur 4mph /  6.5km/h 6.9mph /  11.1km/h 94% 0in /  0.0mm
08:34 49.1 °F /  9.5 °C 47.5 °F /  8.6 °C 29.7in /  1005.2hPa Sur 4mph /  6.5km/h 7mph /  11.3km/h 94% 0in /  0.0mm
08:39 49.1 °F /  9.5 °C 47.5 °F /  8.6 °C 29.7in /  1005.4hPa SSO 4mph /  6.5km/h 6mph /  9.7km/h 94% 0in /  0.0mm
08:44 49.3 °F /  9.6 °C 47.5 °F /  8.6 °C 29.7in /  1005.4hPa SSO 3.2mph /  5.2km/h 5mph /  8km/h 94% 0in /  0.0mm
08:49 49.3 °F /  9.6 °C 47.7 °F /  8.7 °C 29.7in /  1005.4hPa SSO 2.9mph /  4.7km/h 5mph /  8km/h 94% 0in /  0.0mm
08:54 49.5 °F /  9.7 °C 47.8 °F /  8.8 °C 29.7in /  1005.4hPa Sur 2.2mph /  3.6km/h 5mph /  8km/h 94% 0in /  0.0mm
08:59 49.6 °F /  9.8 °C 47.8 °F /  8.8 °C 29.7in /  1005.4hPa Sur 2mph /  3.2km/h 6.2mph /  10km/h 93.6% 0in /  0.0mm
09:04 49.6 °F /  9.8 °C 47.7 °F /  8.7 °C 29.7in /  1005.4hPa SSO 2.8mph /  4.5km/h 6mph /  9.7km/h 93% 0in /  0.0mm
09:09 49.8 °F /  9.9 °C 47.8 °F /  8.8 °C 29.7in /  1005.5hPa SO 3.1mph /  5km/h 5.9mph /  9.5km/h 93% 0in /  0.0mm
09:14 50 °F /  10 °C 48 °F /  8.9 °C 29.7in /  1005.5hPa SO 2.6mph /  4.2km/h 6mph /  9.7km/h 93% 0in /  0.0mm
09:19 50.2 °F /  10.1 °C 48.2 °F /  9 °C 29.7in /  1005.5hPa SO 2.4mph /  3.9km/h 6mph /  9.7km/h 93% 0in /  0.0mm
09:24 50.4 °F /  10.2 °C 48 °F /  8.9 °C 29.7in /  1005.6hPa SSO 3.2mph /  5.2km/h 6mph /  9.7km/h 92.1% 0in /  0.0mm
09:29 50.4 °F /  10.2 °C 48 °F /  8.9 °C 29.7in /  1005.6hPa SSO 3.6mph /  5.8km/h 5.2mph /  8.4km/h 92% 0in /  0.0mm
09:34 50.5 °F /  10.3 °C 48.2 °F /  9 °C 29.7in /  1005.6hPa SO 3.6mph /  5.8km/h 5mph /  8km/h 91.8% 0in /  0.0mm
09:39 50.5 °F /  10.3 °C 48 °F /  8.9 °C 29.7in /  1005.6hPa Sur 3.6mph /  5.8km/h 5.8mph /  9.3km/h 91% 0in /  0.0mm
09:44 50.7 °F /  10.4 °C 48.2 °F /  9 °C 29.7in /  1005.5hPa SE 3.1mph /  5km/h 6.2mph /  10km/h 91% 0in /  0.0mm
09:49 50.7 °F /  10.4 °C 47.8 °F /  8.8 °C 29.7in /  1005.5hPa SSE 2.9mph /  4.7km/h 6.2mph /  10km/h 90.1% 0in /  0.0mm
09:54 50.5 °F /  10.3 °C 47.8 °F /  8.8 °C 29.7in /  1005.5hPa SSE 3.7mph /  5.9km/h 8.1mph /  13km/h 90.2% 0in /  0.0mm
09:59 50.5 °F /  10.3 °C 48 °F /  8.9 °C 29.7in /  1005.3hPa SSE 4mph /  6.5km/h 8.1mph /  13km/h 91% 0in /  0.0mm
10:04 50.5 °F /  10.3 °C 47.8 °F /  8.8 °C 29.7in /  1005.3hPa SSE 5mph /  8.1km/h 8.5mph /  13.7km/h 91% 0in /  0.0mm
10:09 50.4 °F /  10.2 °C 47.8 °F /  8.8 °C 29.7in /  1005.6hPa SSO 5.4mph /  8.7km/h 9mph /  14.5km/h 91% 0in /  0.0mm
10:14 50.4 °F /  10.2 °C 48 °F /  8.9 °C 29.7in /  1005.6hPa SO 4.7mph /  7.5km/h 8mph /  12.9km/h 92% 0in /  0.0mm
10:19 50.4 °F /  10.2 °C 48 °F /  8.9 °C 29.7in /  1005.6hPa SO 4.3mph /  6.9km/h 5mph /  8km/h 92% 0in /  0.0mm
10:24 50.4 °F /  10.2 °C 48.2 °F /  9 °C 29.7in /  1005.6hPa SO 1.2mph /  2km/h 5mph /  8km/h 92% 0in /  0.0mm
10:29 50.5 °F /  10.3 °C 48.4 °F /  9.1 °C 29.7in /  1005.2hPa Calm   6.2mph /  10km/h 92% 0in /  0.0mm
10:34 50.7 °F /  10.4 °C 48.4 °F /  9.1 °C 29.7in /  1005.2hPa ONO 2.1mph /  3.3km/h 6mph /  9.7km/h 92% 0in /  0.0mm
10:39 50.7 °F /  10.4 °C 48.6 °F /  9.2 °C 29.7in /  1005.2hPa ONO 2.9mph /  4.7km/h 5mph /  8km/h 92% 0in /  0.0mm
10:44 50.9 °F /  10.5 °C 48.7 °F /  9.3 °C 29.7in /  1005.1hPa Oeste 2.1mph /  3.4km/h 5.8mph /  9.3km/h 92% 0in /  0.0mm
10:49 50.9 °F /  10.5 °C 48.7 °F /  9.3 °C 29.7in /  1005.1hPa OSO 1.8mph /  2.9km/h 6mph /  9.7km/h 92% 0in /  0.0mm
10:54 51.1 °F /  10.6 °C 48.7 °F /  9.3 °C 29.7in /  1005.1hPa OSO 1.8mph /  2.9km/h 3mph /  4.8km/h 92% 0in /  0.0mm
10:59 51.1 °F /  10.6 °C 48.7 °F /  9.3 °C 29.7in /  1005.1hPa OSO 1.8mph /  2.9km/h   92% 0in /  0.0mm
11:04 51.3 °F /  10.7 °C 48.9 °F /  9.4 °C 29.7in /  1005.1hPa OSO 0.5mph /  0.8km/h   92% 0.01in /  0.3mm
11:09 51.4 °F /  10.8 °C 49.1 °F /  9.5 °C 29.7in /  1005.1hPa Calm   4.6mph /  7.4km/h 91.8% 0.01in /  0.3mm
11:14 51.4 °F /  10.8 °C 48.9 °F /  9.4 °C 29.7in /  1005.1hPa SSE 1.2mph /  2km/h 5mph /  8km/h 91% 0.01in /  0.3mm
11:19 51.4 °F /  10.8 °C 49.1 °F /  9.5 °C 29.7in /  1005.1hPa SSE 1.8mph /  2.9km/h 5mph /  8km/h 91.4% 0.01in /  0.3mm
11:24 51.6 °F /  10.9 °C 49.3 °F /  9.6 °C 29.7in /  1005.1hPa SSE 1.9mph /  3.1km/h 4mph /  6.4km/h 92% 0.01in /  0.3mm
11:29 51.8 °F /  11 °C 49.5 °F /  9.7 °C 29.7in /  1005.1hPa SSE 2mph /  3.2km/h 3.6mph /  5.8km/h 92% 0.01in /  0.3mm
11:34 51.8 °F /  11 °C 49.5 °F /  9.7 °C 29.7in /  1005.1hPa Sur 1.6mph /  2.6km/h 4.7mph /  7.6km/h 92% 0.01in /  0.3mm
11:39 51.8 °F /  11 °C 49.5 °F /  9.7 °C 29.7in /  1005.1hPa SSO 1.4mph /  2.2km/h 5.9mph /  9.5km/h 92% 0.03in /  0.8mm
11:44 51.8 °F /  11 °C 49.5 °F /  9.7 °C 29.7in /  1004.9hPa SSO 2.5mph /  4km/h 6mph /  9.7km/h 92% 0.03in /  0.8mm
11:49 51.8 °F /  11 °C 49.5 °F /  9.7 °C 29.7in /  1004.9hPa Sur 2.9mph /  4.7km/h 5.2mph /  8.4km/h 92% 0.03in /  0.8mm
11:54 51.8 °F /  11 °C 49.5 °F /  9.7 °C 29.7in /  1004.9hPa SSE 3mph /  4.9km/h 5.9mph /  9.5km/h 92% 0.03in /  0.8mm
11:59 51.8 °F /  11 °C 49.5 °F /  9.7 °C 29.7in /  1004.6hPa SSE 3.1mph /  5km/h 6.9mph /  11.1km/h 91.6% 0.04in /  1.0mm
12:04 52 °F /  11.1 °C 49.6 °F /  9.8 °C 29.7in /  1004.6hPa SE 4mph /  6.4km/h 7mph /  11.3km/h 92% 0.04in /  1.0mm
12:09 52 °F /  11.1 °C 49.6 °F /  9.8 °C 29.7in /  1004.6hPa ESE 4.3mph /  6.9km/h 7.4mph /  11.9km/h 92% 0.03in /  0.7mm
12:14 52 °F /  11.1 °C 49.6 °F /  9.8 °C 29.7in /  1004.0hPa ESE 4.3mph /  6.9km/h 9.2mph /  14.8km/h 92% 0.03in /  0.7mm
12:19 52 °F /  11.1 °C 49.6 °F /  9.8 °C 29.7in /  1004.0hPa SSE 4.3mph /  6.9km/h 9mph /  14.5km/h 92% 0.03in /  0.7mm
12:24 52.2 °F /  11.2 °C 50 °F /  10 °C 29.7in /  1004.0hPa NE 4.1mph /  6.6km/h 8mph /  12.9km/h 92.6% 0.03in /  0.7mm
12:29 52.2 °F /  11.2 °C 50.2 °F /  10.1 °C 29.6in /  1002.9hPa Este 4mph /  6.5km/h 5mph /  8km/h 92.9% 0.03in /  0.7mm
12:34 52.3 °F /  11.3 °C 50.2 °F /  10.1 °C 29.6in /  1002.9hPa NE 2.5mph /  4km/h 6.9mph /  11.1km/h 92.5% 0.03in /  0.7mm
12:39 52.3 °F /  11.3 °C 50.2 °F /  10.1 °C 29.6in /  1002.9hPa North 1.8mph /  2.9km/h 7mph /  11.3km/h 92.2% 0.01in /  0.2mm
12:44 52.5 °F /  11.4 °C 50.5 °F /  10.3 °C 29.6in /  1002.2hPa North 3.3mph /  5.3km/h 9.2mph /  14.8km/h 93% 0.01in /  0.2mm
12:49 52.5 °F /  11.4 °C 50.5 °F /  10.3 °C 29.6in /  1002.2hPa NO 4mph /  6.5km/h 9mph /  14.5km/h 92.9% 0.01in /  0.2mm
12:54 52.9 °F /  11.6 °C 50.9 °F /  10.5 °C 29.6in /  1002.2hPa NNO 4.2mph /  6.8km/h 8.1mph /  13km/h 93% 0.01in /  0.2mm
12:59 53.1 °F /  11.7 °C 51.1 °F /  10.6 °C 29.6in /  1002.2hPa NO 4.3mph /  6.9km/h 8mph /  12.9km/h 93% 0.01in /  0.2mm
13:04 53.1 °F /  11.7 °C 51.1 °F /  10.6 °C 29.6in /  1002.2hPa NNO 4.1mph /  6.6km/h 8.1mph /  13km/h 93% 0in /  0.0mm
13:09 53.1 °F /  11.7 °C 51.1 °F /  10.6 °C 29.6in /  1002.2hPa North 4mph /  6.5km/h 8mph /  12.9km/h 93% 0in /  0.0mm
13:14 53.1 °F /  11.7 °C 51.1 °F /  10.6 °C 29.6in /  1002.0hPa NNE 4mph /  6.5km/h 6.9mph /  11.1km/h 93% 0in /  0.0mm
13:19 53.1 °F /  11.7 °C 50.9 °F /  10.5 °C 29.6in /  1002.0hPa NE 4mph /  6.5km/h 7mph /  11.3km/h 92.6% 0in /  0.0mm
13:24 53.1 °F /  11.7 °C 51.1 °F /  10.6 °C 29.6in /  1002.0hPa NNE 4mph /  6.5km/h 6mph /  9.7km/h 92.9% 0in /  0.0mm
13:29 53.2 °F /  11.8 °C 51.3 °F /  10.7 °C 29.6in /  1001.9hPa NNE 4mph /  6.5km/h 5.8mph /  9.3km/h 93% 0in /  0.0mm
13:34 53.2 °F /  11.8 °C 51.3 °F /  10.7 °C 29.6in /  1001.9hPa NE 3.2mph /  5.2km/h 6mph /  9.7km/h 93% 0in /  0.0mm
13:39 53.4 °F /  11.9 °C 51.4 °F /  10.8 °C 29.6in /  1001.9hPa North 2.9mph /  4.7km/h 6.2mph /  10km/h 93% 0in /  0.0mm
13:44 53.4 °F /  11.9 °C 51.4 °F /  10.8 °C 29.6in /  1001.4hPa NE 2.9mph /  4.7km/h 6mph /  9.7km/h 93% 0in /  0.0mm
13:49 53.6 °F /  12 °C 51.6 °F /  10.9 °C 29.6in /  1001.4hPa NE 2.9mph /  4.7km/h 5mph /  8km/h 93% 0in /  0.0mm
13:54 53.8 °F /  12.1 °C 51.8 °F /  11 °C 29.6in /  1001.4hPa NE 2.5mph /  4.1km/h 5mph /  8km/h 93% 0in /  0.0mm
13:59 53.8 °F /  12.1 °C 51.8 °F /  11 °C 29.6in /  1001.4hPa NNE 2.4mph /  3.9km/h 4.6mph /  7.4km/h 93% 0in /  0.0mm
14:04 54 °F /  12.2 °C 51.8 °F /  11 °C 29.6in /  1001.4hPa NNO 1.7mph /  2.7km/h 5mph /  8km/h 93% 0in /  0.0mm
14:09 54 °F /  12.2 °C 52 °F /  11.1 °C 29.6in /  1001.4hPa Oeste 1.4mph /  2.2km/h 2mph /  3.2km/h 93% 0in /  0.0mm
14:14 54 °F /  12.2 °C 52 °F /  11.1 °C 29.6in /  1001.1hPa NNO 0.4mph /  0.7km/h   93% 0in /  0.0mm
14:19 54.1 °F /  12.3 °C 52.2 °F /  11.2 °C 29.6in /  1001.1hPa Calm   3.6mph /  5.8km/h 93% 0in /  0.0mm
14:24 54.1 °F /  12.3 °C 52.2 °F /  11.2 °C 29.6in /  1001.1hPa Calm   5.2mph /  8.4km/h 93% 0in /  0.0mm
14:29 54.3 °F /  12.4 °C 52.3 °F /  11.3 °C 29.6in /  1000.8hPa Calm   5mph /  8km/h 93% 0in /  0.0mm
14:34 54.3 °F /  12.4 °C 52 °F /  11.1 °C 29.6in /  1000.8hPa NE 1.7mph /  2.7km/h 5.9mph /  9.5km/h 92.1% 0in /  0.0mm
14:39 54.3 °F /  12.4 °C 52 °F /  11.1 °C 29.6in /  1000.8hPa NE 2.4mph /  3.9km/h 6mph /  9.7km/h 92% 0in /  0.0mm
14:44 54.5 °F /  12.5 °C 52.3 °F /  11.3 °C 29.5in /  1000.2hPa NNE 2.1mph /  3.4km/h 5.9mph /  9.5km/h 92% 0in /  0.0mm
14:49 54.7 °F /  12.6 °C 52.3 °F /  11.3 °C 29.5in /  1000.2hPa NE 2mph /  3.2km/h 6mph /  9.7km/h 92% 0in /  0.0mm
14:54 54.9 °F /  12.7 °C 52.5 °F /  11.4 °C 29.5in /  1000.2hPa NNE 3.2mph /  5.1km/h 6mph /  9.7km/h 92% 0in /  0.0mm
14:59 54.9 °F /  12.7 °C 52.5 °F /  11.4 °C 29.5in /  1000.1hPa NNE 3.6mph /  5.8km/h 6mph /  9.7km/h 92% 0in /  0.0mm
15:04 54.9 °F /  12.7 °C 52.7 °F /  11.5 °C 29.5in /  1000.1hPa NE 3.6mph /  5.8km/h 6mph /  9.7km/h 92% 0in /  0.0mm
15:09 55 °F /  12.8 °C 52.9 °F /  11.6 °C 29.5in /  1000.1hPa NNE 3.6mph /  5.8km/h 6.2mph /  10km/h 92.6% 0in /  0.0mm
15:14 55 °F /  12.8 °C 53.1 °F /  11.7 °C 29.5in /  999.9hPa NE 3.9mph /  6.2km/h 6mph /  9.7km/h 93% 0in /  0.0mm
15:19 55 °F /  12.8 °C 53.1 °F /  11.7 °C 29.5in /  999.9hPa NE 4mph /  6.5km/h 6.9mph /  11.1km/h 93% 0in /  0.0mm
15:24 55.2 °F /  12.9 °C 53.2 °F /  11.8 °C 29.5in /  999.9hPa NE 4.2mph /  6.8km/h 7mph /  11.3km/h 93% 0in /  0.0mm
15:29 55.4 °F /  13 °C 53.4 °F /  11.9 °C 29.5in /  999.4hPa Este 4.3mph /  6.9km/h 6.2mph /  10km/h 93% 0in /  0.0mm
15:34 55.6 °F /  13.1 °C 53.6 °F /  12 °C 29.5in /  999.4hPa ENE 3.8mph /  6.1km/h 6mph /  9.7km/h 93% 0in /  0.0mm
15:39 55.8 °F /  13.2 °C 53.8 °F /  12.1 °C 29.5in /  999.4hPa Este 3.6mph /  5.8km/h 7.4mph /  11.9km/h 93% 0in /  0.0mm
15:44 55.9 °F /  13.3 °C 54 °F /  12.2 °C 29.5in /  999.0hPa NE 3.6mph /  5.8km/h 7mph /  11.3km/h 93% 0in /  0.0mm
15:49 55.9 °F /  13.3 °C 54 °F /  12.2 °C 29.5in /  999.0hPa Oeste 3.6mph /  5.8km/h 5.9mph /  9.5km/h 93% 0in /  0.0mm
15:54 56.1 °F /  13.4 °C 54.1 °F /  12.3 °C 29.5in /  999.0hPa NNO 3.1mph /  5km/h 6mph /  9.7km/h 93% 0in /  0.0mm
15:59 56.1 °F /  13.4 °C 54.1 °F /  12.3 °C 29.5in /  998.9hPa NO 2.9mph /  4.7km/h 9.7mph /  15.6km/h 93% 0in /  0.0mm
16:04 56.7 °F /  13.7 °C 54.7 °F /  12.6 °C 29.5in /  998.9hPa Sur 3.9mph /  6.3km/h 14mph /  22.5km/h 93% 0in /  0.0mm
16:09 57.2 °F /  14 °C 54.9 °F /  12.7 °C 29.5in /  998.9hPa Sur 4.3mph /  6.9km/h 17.3mph /  27.8km/h 91.8% 0in /  0.0mm
16:14 58.5 °F /  14.7 °C 55 °F /  12.8 °C 29.5in /  998.7hPa Sur 5.8mph /  9.3km/h 17.5mph /  28.2km/h 88.1% 0in /  0.0mm
16:19 59.5 °F /  15.3 °C 54.9 °F /  12.7 °C 29.5in /  998.7hPa SSE 6.4mph /  10.3km/h 17mph /  27.4km/h 84.2% 0in /  0.0mm
16:24 59.9 °F /  15.5 °C 54.7 °F /  12.6 °C 29.5in /  998.7hPa SSE 7.9mph /  12.7km/h 16.1mph /  25.9km/h 82.4% 0.01in /  0.3mm
16:29 60.3 °F /  15.7 °C 54.3 °F /  12.4 °C 29.5in /  998.4hPa SSE 8.5mph /  13.7km/h 20.8mph /  33.5km/h 80.7% 0.01in /  0.3mm
16:34 60.3 °F /  15.7 °C 54.1 °F /  12.3 °C 29.5in /  998.4hPa Sur 10.5mph /  16.9km/h 26.1mph /  42km/h 80% 0.01in /  0.3mm
16:39 60.3 °F /  15.7 °C 53.8 °F /  12.1 °C 29.5in /  998.4hPa Sur 11.4mph /  18.4km/h 26.5mph /  42.6km/h 79% 0.01in /  0.3mm
16:44 60.3 °F /  15.7 °C 54 °F /  12.2 °C 29.5in /  998.3hPa SSE 12.2mph /  19.6km/h 23.5mph /  37.8km/h 79.8% 0.01in /  0.3mm
16:49 60.1 °F /  15.6 °C 54.1 °F /  12.3 °C 29.5in /  998.3hPa Sur 12.5mph /  20.1km/h 23mph /  37km/h 80.6% 0.01in /  0.3mm
16:54 59.7 °F /  15.4 °C 54.1 °F /  12.3 °C 29.5in /  998.3hPa SSE 10.9mph /  17.5km/h 17.5mph /  28.2km/h 81.6% 0.01in /  0.3mm
16:59 59.5 °F /  15.3 °C 54.1 °F /  12.3 °C 29.5in /  998.0hPa SSE 10.2mph /  16.4km/h 17.3mph /  27.8km/h 81.9% 0.01in /  0.3mm
17:04 59.5 °F /  15.3 °C 54 °F /  12.2 °C 29.5in /  998.0hPa Sur 10.2mph /  16.4km/h 18.5mph /  29.8km/h 81.6% 0.02in /  0.5mm
17:09 59.5 °F /  15.3 °C 53.8 °F /  12.1 °C 29.5in /  998.1hPa Sur 10.2mph /  16.4km/h 19mph /  30.6km/h 81% 0.02in /  0.5mm
17:14 59.4 °F /  15.2 °C 54 °F /  12.2 °C 29.5in /  998.1hPa Sur 9.8mph /  15.8km/h 19mph /  30.6km/h 81.9% 0.02in /  0.5mm
17:19 59.4 °F /  15.2 °C 54 °F /  12.2 °C 29.5in /  998.1hPa Sur 9.7mph /  15.6km/h 19mph /  30.6km/h 82.4% 0.02in /  0.5mm
17:24 59 °F /  15 °C 54 °F /  12.2 °C 29.5in /  998.1hPa Sur 10.4mph /  16.7km/h 17.5mph /  28.2km/h 83.4% 0.03in /  0.8mm
17:29 59 °F /  15 °C 54.1 °F /  12.3 °C 29.5in /  998.0hPa Sur 10.7mph /  17.2km/h 17mph /  27.4km/h 84% 0.03in /  0.8mm
17:34 58.8 °F /  14.9 °C 54.1 °F /  12.3 °C 29.5in /  998.0hPa Sur 10.7mph /  17.2km/h 16mph /  25.7km/h 84.4% 0.03in /  0.8mm
17:39 58.8 °F /  14.9 °C 54.3 °F /  12.4 °C 29.5in /  998.0hPa Sur 10.7mph /  17.2km/h 17.3mph /  27.8km/h 85% 0.04in /  1.0mm
17:44 59 °F /  15 °C 54.3 °F /  12.4 °C 29.5in /  998.0hPa Sur 9.3mph /  15km/h 17mph /  27.4km/h 84.9% 0.04in /  1.0mm
17:49 58.8 °F /  14.9 °C 54.3 °F /  12.4 °C 29.5in /  998.0hPa Sur 8.7mph /  14km/h 14mph /  22.5km/h 85% 0.06in /  1.5mm
17:54 58.8 °F /  14.9 °C 54.3 °F /  12.4 °C 29.5in /  998.0hPa SSO 7.8mph /  12.6km/h 14mph /  22.5km/h 85% 0.06in /  1.5mm
17:59 58.8 °F /  14.9 °C 54.3 °F /  12.4 °C 29.5in /  997.8hPa Sur 7.4mph /  11.9km/h 16.3mph /  26.2km/h 85% 0.06in /  1.5mm
18:04 59.2 °F /  15.1 °C 54.7 °F /  12.6 °C 29.5in /  997.8hPa Sur 8.3mph /  13.4km/h 16mph /  25.7km/h 85% 0.06in /  1.6mm
18:09 59.2 °F /  15.1 °C 54.7 °F /  12.6 °C 29.5in /  998.0hPa Sur 8.7mph /  14km/h 17.3mph /  27.8km/h 85% 0.07in /  1.8mm
18:14 59.2 °F /  15.1 °C 54.9 °F /  12.7 °C 29.5in /  998.0hPa Sur 8.7mph /  14km/h 17.3mph /  27.8km/h 85.7% 0.07in /  1.8mm
18:19 58.8 °F /  14.9 °C 54.9 °F /  12.7 °C 29.5in /  998.0hPa Sur 8.7mph /  14km/h 17mph /  27.4km/h 86.5% 0.08in /  2.1mm
18:24 58.8 °F /  14.9 °C 55 °F /  12.8 °C 29.5in /  998.0hPa Sur 7.8mph /  12.5km/h 13mph /  20.9km/h 87% 0.08in /  2.1mm
18:29 58.6 °F /  14.8 °C 55 °F /  12.8 °C 29.5in /  997.8hPa Sur 7.4mph /  11.9km/h 11.5mph /  18.5km/h 87.9% 0.07in /  1.8mm
18:34 58.6 °F /  14.8 °C 55.2 °F /  12.9 °C 29.5in /  997.8hPa Sur 6.6mph /  10.6km/h 12mph /  19.3km/h 88% 0.08in /  2.0mm
18:39 58.6 °F /  14.8 °C 55.2 °F /  12.9 °C 29.5in /  997.8hPa SSE 6.2mph /  10km/h 11mph /  17.7km/h 88% 0.08in /  2.1mm
18:44 58.6 °F /  14.8 °C 55.2 °F /  12.9 °C 29.5in /  997.7hPa SE 6mph /  9.6km/h 10mph /  16.1km/h 88% 0.08in /  2.1mm
18:49 58.6 °F /  14.8 °C 55.2 °F /  12.9 °C 29.5in /  997.7hPa SSE 5.9mph /  9.5km/h 10.4mph /  16.7km/h 88.4% 0.08in /  2.1mm
18:54 58.6 °F /  14.8 °C 55.4 °F /  13 °C 29.5in /  997.7hPa SSE 5.5mph /  8.9km/h 11.5mph /  18.5km/h 89% 0.06in /  1.6mm
18:59 58.6 °F /  14.8 °C 55.4 °F /  13 °C 29.5in /  997.4hPa SSE 5.4mph /  8.7km/h 12mph /  19.3km/h 89% 0.06in /  1.6mm
19:04 58.6 °F /  14.8 °C 55.4 °F /  13 °C 29.5in /  997.4hPa SSE 5.8mph /  9.3km/h 9.2mph /  14.8km/h 89% 0.06in /  1.6mm
19:09 58.6 °F /  14.8 °C 55.4 °F /  13 °C 29.5in /  997.4hPa SE 5.9mph /  9.5km/h 10.4mph /  16.7km/h 89% 0.06in /  1.6mm
19:14 58.6 °F /  14.8 °C 55.4 °F /  13 °C 29.4in /  996.8hPa SSE 5.5mph /  8.9km/h 10mph /  16.1km/h 89% 0.06in /  1.6mm
19:19 58.6 °F /  14.8 °C 55.4 °F /  13 °C 29.4in /  996.8hPa Sur 5.4mph /  8.7km/h 9mph /  14.5km/h 89% 0.06in /  1.6mm
19:24 58.6 °F /  14.8 °C 55.4 °F /  13 °C 29.4in /  996.9hPa Sur 5.3mph /  8.5km/h 10.4mph /  16.7km/h 89% 0.06in /  1.5mm
19:29 58.6 °F /  14.8 °C 55.6 °F /  13.1 °C 29.4in /  996.9hPa SSO 5.2mph /  8.4km/h 10.4mph /  16.7km/h 89% 0.06in /  1.5mm
19:34 58.8 °F /  14.9 °C 55.6 °F /  13.1 °C 29.4in /  996.9hPa OSO 5.7mph /  9.1km/h 10mph /  16.1km/h 89% 0.06in /  1.5mm
19:39 58.6 °F /  14.8 °C 55.4 °F /  13 °C 29.5in /  997.3hPa OSO 5.9mph /  9.5km/h 8.1mph /  13km/h 89% 0.06in /  1.5mm
19:44 58.6 °F /  14.8 °C 55.6 °F /  13.1 °C 29.5in /  997.3hPa SO 4.3mph /  6.9km/h 8mph /  12.9km/h 89.6% 0.07in /  1.8mm
19:49 58.5 °F /  14.7 °C 55.6 °F /  13.1 °C 29.5in /  997.3hPa SO 3.6mph /  5.8km/h 6mph /  9.7km/h 90% 0.08in /  2.0mm
19:54 58.5 °F /  14.7 °C 55.6 °F /  13.1 °C 29.5in /  997.3hPa Sur 2.4mph /  3.9km/h 5.4mph /  8.7km/h 90% 0.09in /  2.3mm
19:59 58.5 °F /  14.7 °C 55.6 °F /  13.1 °C 29.4in /  996.9hPa SO 2mph /  3.2km/h 6.2mph /  10km/h 90% 0.1in /  2.5mm
20:04 58.3 °F /  14.6 °C 55.6 °F /  13.1 °C 29.4in /  996.9hPa SO 2.3mph /  3.7km/h 6mph /  9.7km/h 90.5% 0.1in /  2.5mm
20:09 58.3 °F /  14.6 °C 55.8 °F /  13.2 °C 29.4in /  996.9hPa SO 2.4mph /  3.9km/h   91% 0.1in /  2.5mm
20:14 58.1 °F /  14.5 °C 55.6 °F /  13.1 °C 29.4in /  996.3hPa SO 0.7mph /  1.1km/h   91% 0.08in /  2.0mm
20:19 57.9 °F /  14.4 °C 55.2 °F /  12.9 °C 29.4in /  996.3hPa Calm   4.3mph /  6.9km/h 91% 0.08in /  2.0mm
20:24 57.9 °F /  14.4 °C 55.2 °F /  12.9 °C 29.4in /  996.3hPa North 1mph /  1.6km/h 5mph /  8km/h 91% 0.08in /  2.0mm
20:29 57.6 °F /  14.2 °C 55 °F /  12.8 °C 29.4in /  996.0hPa NNO 1.4mph /  2.2km/h 7.4mph /  11.9km/h 91.3% 0.07in /  1.8mm
20:34 57.2 °F /  14 °C 55 °F /  12.8 °C 29.4in /  996.0hPa North 2.9mph /  4.7km/h 7mph /  11.3km/h 92% 0.07in /  1.8mm
20:39 57 °F /  13.9 °C 54.7 °F /  12.6 °C 29.4in /  996.2hPa NNE 3.6mph /  5.8km/h 6mph /  9.7km/h 92.2% 0.05in /  1.3mm
20:44 56.8 °F /  13.8 °C 54.9 °F /  12.7 °C 29.4in /  996.2hPa NNE 2.7mph /  4.4km/h 5mph /  8km/h 93% 0.04in /  1.0mm
20:49 56.8 °F /  13.8 °C 54.9 °F /  12.7 °C 29.4in /  996.2hPa North 2.4mph /  3.9km/h 4.6mph /  7.4km/h 93.2% 0.03in /  0.7mm
20:54 56.8 °F /  13.8 °C 55 °F /  12.8 °C 29.4in /  996.6hPa NNO 2mph /  3.2km/h 5mph /  8km/h 94% 0.02in /  0.5mm
20:59 56.8 °F /  13.8 °C 54.9 °F /  12.7 °C 29.4in /  996.6hPa North 1.8mph /  2.9km/h 6.2mph /  10km/h 93% 0in /  0.0mm
21:04 56.7 °F /  13.7 °C 54.9 °F /  12.7 °C 29.4in /  996.6hPa NO 2.7mph /  4.4km/h 6.9mph /  11.1km/h 93.5% 0in /  0.0mm
21:09 56.7 °F /  13.7 °C 54.9 °F /  12.7 °C 29.4in /  996.8hPa ONO 3.1mph /  5km/h 7mph /  11.3km/h 94% 0in /  0.0mm
21:14 56.3 °F /  13.5 °C 54.7 °F /  12.6 °C 29.4in /  996.8hPa NO 3.7mph /  5.9km/h 8.1mph /  13km/h 94% 0in /  0.0mm
21:19 56.1 °F /  13.4 °C 54.5 °F /  12.5 °C 29.4in /  996.8hPa NNO 4mph /  6.5km/h 8mph /  12.9km/h 94% 0in /  0.0mm
21:24 56.1 °F /  13.4 °C 54.3 °F /  12.4 °C 29.4in /  996.8hPa NNO 4mph /  6.5km/h 7mph /  11.3km/h 94% 0in /  0.0mm
21:29 56.1 °F /  13.4 °C 54.7 °F /  12.6 °C 29.4in /  996.6hPa North 4mph /  6.5km/h 5mph /  8km/h 94.6% 0in /  0.0mm
21:34 56.1 °F /  13.4 °C 54.7 °F /  12.6 °C 29.4in /  996.6hPa NNO 2.9mph /  4.7km/h 5mph /  8km/h 95% 0in /  0.0mm
21:39 56.1 °F /  13.4 °C 54.7 °F /  12.6 °C 29.4in /  996.6hPa NNO 2.4mph /  3.9km/h 5mph /  8km/h 95% 0in /  0.0mm
21:44 56.1 °F /  13.4 °C 54.7 °F /  12.6 °C 29.4in /  996.1hPa NO 2.7mph /  4.4km/h 5.2mph /  8.4km/h 95% 0in /  0.0mm
21:49 56.1 °F /  13.4 °C 54.7 °F /  12.6 °C 29.4in /  996.1hPa NO 2.9mph /  4.7km/h 5mph /  8km/h 95% 0in /  0.0mm
21:54 56.1 °F /  13.4 °C 54.7 °F /  12.6 °C 29.4in /  996.1hPa NNO 2.3mph /  3.7km/h 4.6mph /  7.4km/h 95% 0in /  0.0mm
21:59 56.1 °F /  13.4 °C 54.7 °F /  12.6 °C 29.4in /  995.9hPa NNO 2mph /  3.2km/h 5mph /  8km/h 95% 0in /  0.0mm
22:04 55.9 °F /  13.3 °C 54.5 °F /  12.5 °C 29.4in /  995.9hPa NNO 0.6mph /  1km/h   95% 0in /  0.0mm
22:09 55.9 °F /  13.3 °C 54.5 °F /  12.5 °C 29.4in /  996.0hPa Calm   1.4mph /  2.3km/h 95% 0in /  0.0mm
22:14 55.8 °F /  13.2 °C 54.3 °F /  12.4 °C 29.4in /  996.0hPa Calm   1mph /  1.6km/h 95% 0in /  0.0mm
22:19 55.8 °F /  13.2 °C 54.3 °F /  12.4 °C 29.4in /  996.0hPa Calm     95% 0in /  0.0mm
22:24 55.6 °F /  13.1 °C 54.1 °F /  12.3 °C 29.4in /  996.0hPa Calm   3.6mph /  5.8km/h 95% 0in /  0.0mm
22:29 55.4 °F /  13 °C 54.1 °F /  12.3 °C 29.4in /  995.6hPa Calm   4mph /  6.4km/h 95% 0in /  0.0mm
22:34 55.2 °F /  12.9 °C 53.8 °F /  12.1 °C 29.4in /  995.6hPa Calm     95% 0in /  0.0mm
22:39 55.2 °F /  12.9 °C 53.8 °F /  12.1 °C 29.4in /  995.6hPa Calm   3.6mph /  5.8km/h 95% 0in /  0.0mm
22:44 55 °F /  12.8 °C 53.6 °F /  12 °C 29.4in /  995.3hPa SE 0.9mph /  1.5km/h 4.6mph /  7.4km/h 95% 0in /  0.0mm
22:49 54.9 °F /  12.7 °C 53.6 °F /  12 °C 29.4in /  995.3hPa SE 1.4mph /  2.2km/h 5mph /  8km/h 95% 0.01in /  0.2mm
22:54 54.9 °F /  12.7 °C 53.4 °F /  11.9 °C 29.4in /  995.3hPa SE 1.4mph /  2.2km/h   95% 0.01in /  0.2mm
22:59 54.7 °F /  12.6 °C 53.2 °F /  11.8 °C 29.4in /  995.2hPa SE 1.4mph /  2.2km/h   95.1% 0.01in /  0.2mm
23:04 54.7 °F /  12.6 °C 53.4 °F /  11.9 °C 29.4in /  995.2hPa SE 0.4mph /  0.7km/h   95.3% 0.01in /  0.2mm
23:09 54.7 °F /  12.6 °C 53.6 °F /  12 °C 29.4in /  995.3hPa Calm     95.9% 0.01in /  0.2mm
23:14 54.7 °F /  12.6 °C 53.6 °F /  12 °C 29.4in /  995.3hPa Calm     96% 0.01in /  0.2mm
23:19 54.7 °F /  12.6 °C 53.6 °F /  12 °C 29.4in /  995.3hPa Calm     96% 0.01in /  0.2mm
23:24 54.7 °F /  12.6 °C 53.6 °F /  12 °C 29.4in /  995.3hPa Calm     96% 0.01in /  0.2mm
23:29 54.9 °F /  12.7 °C 53.8 °F /  12.1 °C 29.4in /  995.3hPa Calm   4.6mph /  7.4km/h 96% 0.01in /  0.2mm
23:34 54.9 °F /  12.7 °C 53.6 °F /  12 °C 29.4in /  995.3hPa SE 1.2mph /  2km/h 5mph /  8km/h 96% 0.01in /  0.2mm
23:39 54.5 °F /  12.5 °C 53.2 °F /  11.8 °C 29.4in /  995.3hPa SE 1.8mph /  2.9km/h 5mph /  8km/h 95.4% 0.01in /  0.2mm
23:44 54.3 °F /  12.4 °C 53.2 °F /  11.8 °C 29.4in /  995.3hPa SE 1.9mph /  3.1km/h 6.9mph /  11.1km/h 95.9% 0.01in /  0.2mm
23:49 54.1 °F /  12.3 °C 53.1 °F /  11.7 °C 29.4in /  995.3hPa SE 2mph /  3.2km/h 7mph /  11.3km/h 96% 0.01in /  0.2mm
23:54 54.1 °F /  12.3 °C 53.1 °F /  11.7 °C 29.4in /  995.3hPa SE 3.1mph /  5km/h 7mph /  11.3km/h 96% 0in /  0.0mm
23:59 54.1 °F /  12.3 °C 53.1 °F /  11.7 °C 29.4in /  995.0hPa SE 3.6mph /  5.8km/h 3mph /  4.8km/h 96% 0in /  0.0mm
Murcia-Puente Tocinos, España
Compliments of Weather Underground - 3 mb

La estación de MeteoMurcia.com, publica sus datos en los siguientes proyectos:

Weather Underground PWS IMURCIAP2 Meteoclimatic www.awekas.at

W3Counter
Web Analytics